createdAt,value
2018-12-24T00:01:05.009Z,94.08
2018-12-24T00:03:34.815Z,94.23
2018-12-24T00:06:04.910Z,93.67
2018-12-24T00:08:34.704Z,93.94
2018-12-24T00:11:04.516Z,93.66
2018-12-24T00:13:34.347Z,92.95
2018-12-24T00:16:04.160Z,92.95
2018-12-24T00:18:34.068Z,92.65
2018-12-24T00:21:03.940Z,92.21
2018-12-24T00:23:33.868Z,91.92
2018-12-24T00:26:03.677Z,91.66
2018-12-24T00:28:33.521Z,92.25
2018-12-24T00:31:03.325Z,92.98
2018-12-24T00:33:33.152Z,93.71
2018-12-24T00:36:03.110Z,93.57
2018-12-24T00:38:32.907Z,94.21
2018-12-24T00:41:02.746Z,95.10
2018-12-24T00:43:32.545Z,95.81
2018-12-24T00:46:02.379Z,96.17
2018-12-24T00:48:32.174Z,96.42
2018-12-24T00:51:01.991Z,97.01
2018-12-24T00:53:31.790Z,96.99
2018-12-24T00:56:01.620Z,96.58
2018-12-24T00:58:31.422Z,96.67
2018-12-24T01:01:01.252Z,95.11
2018-12-24T01:03:31.076Z,95.71
2018-12-24T01:06:00.870Z,95.71
2018-12-24T01:08:30.687Z,98.39
2018-12-24T01:11:00.495Z,100.00
2018-12-24T01:13:30.335Z,100.00
2018-12-24T01:16:00.124Z,100.00
2018-12-24T01:18:29.976Z,100.00
2018-12-24T01:20:59.800Z,100.00
2018-12-24T01:23:29.594Z,100.00
2018-12-24T01:25:59.544Z,100.00
2018-12-24T01:28:29.353Z,100.00
2018-12-24T01:30:59.282Z,100.00
2018-12-24T01:33:29.086Z,100.00
2018-12-24T01:35:58.911Z,100.00
2018-12-24T01:38:28.702Z,100.00
2018-12-24T01:40:58.829Z,100.00
2018-12-24T01:43:28.631Z,100.00
2018-12-24T01:45:58.442Z,100.00
2018-12-24T01:48:28.292Z,100.00
2018-12-24T01:50:58.093Z,100.00
2018-12-24T01:53:27.923Z,100.00
2018-12-24T01:55:57.718Z,100.00
2018-12-24T01:58:27.726Z,100.00
2018-12-24T02:00:57.523Z,100.00
2018-12-24T02:03:27.552Z,100.00
2018-12-24T02:05:57.361Z,100.00
2018-12-24T02:08:27.163Z,100.00
2018-12-24T02:10:56.992Z,100.00
2018-12-24T02:13:26.808Z,100.00
2018-12-24T02:15:56.636Z,100.00
2018-12-24T02:18:26.438Z,100.00
2018-12-24T02:20:56.345Z,100.00
2018-12-24T02:23:26.185Z,100.00
2018-12-24T02:25:56.097Z,100.00
2018-12-24T02:28:25.902Z,100.00
2018-12-24T02:30:56.005Z,100.00
2018-12-24T02:33:25.829Z,100.00
2018-12-24T02:35:55.639Z,100.00
2018-12-24T02:38:25.467Z,100.00
2018-12-24T02:40:55.323Z,100.00
2018-12-24T02:43:25.166Z,100.00
2018-12-24T02:45:54.964Z,100.00
2018-12-24T02:48:24.768Z,100.00
2018-12-24T02:50:54.578Z,100.00
2018-12-24T02:53:24.601Z,100.00
2018-12-24T02:55:54.470Z,100.00
2018-12-24T02:58:24.274Z,100.00
2018-12-24T03:00:54.373Z,100.00
2018-12-24T03:03:24.327Z,100.00
2018-12-24T03:05:54.138Z,100.00
2018-12-24T03:08:23.975Z,100.00
2018-12-24T03:10:53.779Z,100.00
2018-12-24T03:13:23.620Z,100.00
2018-12-24T03:15:53.417Z,100.00
2018-12-24T03:18:23.249Z,100.00
2018-12-24T03:20:53.126Z,100.00
2018-12-24T03:23:22.978Z,100.00
2018-12-24T03:25:52.777Z,100.00
2018-12-24T03:28:22.603Z,100.00
2018-12-24T03:30:52.409Z,100.00
2018-12-24T03:33:22.419Z,100.00
2018-12-24T03:35:52.223Z,100.00
2018-12-24T03:38:22.038Z,100.00
2018-12-24T03:40:52.789Z,100.00
2018-12-24T03:43:22.734Z,100.00
2018-12-24T03:45:52.524Z,100.00
2018-12-24T03:48:22.368Z,100.00
2018-12-24T03:50:52.187Z,100.00
2018-12-24T03:53:22.011Z,100.00
2018-12-24T03:55:51.814Z,100.00
2018-12-24T03:58:21.630Z,99.49
2018-12-24T04:00:51.428Z,98.96
2018-12-24T04:03:21.394Z,98.71
2018-12-24T04:05:51.201Z,98.29
2018-12-24T04:08:21.287Z,98.05
2018-12-24T04:10:51.085Z,98.16
2018-12-24T23:41:44.507Z,100.00
2018-12-24T23:44:14.797Z,100.00
